createdAt,value
2018-04-24T00:00:52.707Z,980
2018-04-24T00:01:54.034Z,980
2018-04-24T00:02:58.039Z,980
2018-04-24T00:03:59.395Z,980
2018-04-24T00:05:00.727Z,980
2018-04-24T00:06:02.123Z,980
2018-04-24T00:07:03.445Z,980.1
2018-04-24T00:08:04.775Z,980.1
2018-04-24T00:09:06.092Z,980.1
2018-04-24T00:10:07.413Z,980.1
2018-04-24T00:11:08.754Z,980.1
2018-04-24T00:12:10.096Z,980.1
2018-04-24T00:13:13.354Z,980.1
2018-04-24T00:14:14.691Z,980.1
2018-04-24T00:15:16.017Z,980.2
2018-04-24T00:16:17.369Z,980.2
2018-04-24T00:17:18.708Z,980.2
2018-04-24T00:18:20.157Z,980.2
2018-04-24T00:19:21.405Z,980.2
2018-04-24T00:20:22.765Z,980.2
2018-04-24T00:21:24.078Z,980.3
2018-04-24T00:22:25.420Z,980.2
2018-04-24T00:23:26.851Z,980.2
2018-04-24T00:24:28.167Z,980.2
2018-04-24T00:25:29.498Z,980.2
2018-04-24T00:26:30.819Z,980.2
2018-04-24T00:27:32.160Z,980.1
2018-04-24T00:28:33.545Z,980.1
2018-04-24T00:29:34.867Z,980.1
2018-04-24T00:30:36.205Z,980.2
2018-04-24T00:31:37.568Z,980.1
2018-04-24T00:32:38.951Z,980.1
2018-04-24T00:33:40.339Z,980.2
2018-04-24T00:34:41.958Z,980.2
2018-04-24T00:35:43.410Z,980.2
2018-04-24T00:36:44.962Z,980.2
2018-04-24T00:37:46.379Z,980.2
2018-04-24T00:38:47.952Z,980.2
2018-04-24T00:39:49.267Z,980.2
2018-04-24T00:40:50.640Z,980
2018-04-24T00:41:52.035Z,980.2
2018-04-24T00:42:53.483Z,980.2
2018-04-24T00:43:54.862Z,980.2
2018-04-24T00:44:56.230Z,980.2
2018-04-24T00:46:00.143Z,980.2
2018-04-24T00:47:01.518Z,980.2
2018-04-24T00:48:02.926Z,980.2
2018-04-24T00:49:04.464Z,980.1
2018-04-24T00:50:05.795Z,980
2018-04-24T00:51:07.121Z,980.2
2018-04-24T00:52:08.906Z,980.1
2018-04-24T00:53:10.239Z,980.2
2018-04-24T00:54:11.678Z,980.2
2018-04-24T00:55:12.988Z,980.2
2018-04-24T00:56:14.302Z,980.2
2018-04-24T00:57:15.626Z,980.2
2018-04-24T00:58:16.987Z,980.1
2018-04-24T00:59:18.363Z,980.2
2018-04-24T01:00:19.699Z,980.1
2018-04-24T01:01:21.014Z,980.2
2018-04-24T01:02:22.362Z,980.2
2018-04-24T01:03:23.692Z,980.1
2018-04-24T01:04:25.055Z,980.1
2018-04-24T01:05:26.383Z,980.1
2018-04-24T01:06:27.684Z,980.1
2018-04-24T01:07:28.991Z,980.1
2018-04-24T01:08:30.318Z,980.1
2018-04-24T01:09:34.348Z,980
2018-04-24T01:10:35.688Z,980
2018-04-24T01:11:37.024Z,980.1
2018-04-24T01:12:38.348Z,980.1
2018-04-24T01:13:39.664Z,979.9
2018-04-24T01:14:41.032Z,980.1
2018-04-24T01:15:42.409Z,980
2018-04-24T01:16:43.726Z,979.9
2018-04-24T01:17:45.031Z,980
2018-04-24T01:18:46.381Z,980
2018-04-24T01:19:47.757Z,980
2018-04-24T01:20:49.076Z,980
2018-04-24T01:21:50.438Z,980
2018-04-24T01:22:51.813Z,980
2018-04-24T01:23:53.130Z,980
2018-04-24T01:24:54.550Z,980
2018-04-24T01:25:55.900Z,980
2018-04-24T01:26:57.225Z,980
2018-04-24T01:27:58.545Z,980
2018-04-24T01:28:59.893Z,980
2018-04-24T01:30:01.298Z,980
2018-04-24T01:31:02.660Z,980
2018-04-24T01:32:07.389Z,979.9
2018-04-24T01:33:08.727Z,980
2018-04-24T01:34:10.057Z,980
2018-04-24T01:35:11.700Z,980
2018-04-24T01:36:13.057Z,980
2018-04-24T01:37:14.412Z,980
2018-04-24T01:38:15.734Z,979.9
2018-04-24T01:39:17.198Z,979.9
2018-04-24T01:40:18.582Z,980
2018-04-24T01:41:25.254Z,979.9
2018-04-24T01:42:26.584Z,979.9
2018-04-24T01:43:28.054Z,979.9
2018-04-24T01:44:29.353Z,979.9
2018-04-24T01:45:30.860Z,980
2018-04-24T01:46:32.209Z,979.9
2018-04-24T01:47:33.749Z,980
2018-04-24T01:48:35.105Z,979.9
2018-04-24T01:49:36.590Z,979.7
2018-04-24T01:50:37.960Z,979.9
2018-04-24T01:51:39.482Z,980
2018-04-24T01:52:40.817Z,980
2018-04-24T01:53:42.155Z,979.9
2018-04-24T01:54:43.464Z,979.9
2018-04-24T01:55:44.840Z,979.9
2018-04-24T01:56:46.173Z,979.9
2018-04-24T01:57:47.788Z,980
2018-04-24T01:58:49.091Z,980
2018-04-24T01:59:50.427Z,980
2018-04-24T02:00:51.829Z,980
2018-04-24T02:01:53.171Z,980
2018-04-24T02:02:54.506Z,980
2018-04-24T02:03:55.840Z,980
2018-04-24T02:04:57.201Z,980
2018-04-24T02:05:58.643Z,979.9
2018-04-24T02:06:59.942Z,979.9
2018-04-24T02:08:01.293Z,980
2018-04-24T02:09:02.685Z,979.8
2018-04-24T02:10:04.024Z,979.8
2018-04-24T02:11:05.383Z,979.8
2018-04-24T02:12:06.713Z,979.8
2018-04-24T02:13:08.022Z,979.7
2018-04-24T02:14:09.360Z,979.7
2018-04-24T02:15:10.741Z,979.7
2018-04-24T02:16:12.172Z,979.8
2018-04-24T02:17:13.510Z,979.7
2018-04-24T02:18:14.812Z,979.8
2018-04-24T02:19:16.162Z,979.8
2018-04-24T02:20:17.463Z,979.7
2018-04-24T02:21:18.819Z,979.7
2018-04-24T02:22:20.148Z,979.8
2018-04-24T02:23:26.728Z,979.8
2018-04-24T02:24:35.369Z,979.8
2018-04-24T02:25:36.674Z,979.8
2018-04-24T02:26:38.103Z,979.9
2018-04-24T02:27:39.465Z,979.8
2018-04-24T02:28:40.820Z,979.9
2018-04-24T02:29:42.150Z,979.8
2018-04-24T02:30:43.468Z,979.8
2018-04-24T02:31:44.830Z,979.8
2018-04-24T02:32:46.180Z,979.9
2018-04-24T02:33:47.548Z,979.8
2018-04-24T02:34:48.867Z,979.7
2018-04-24T02:35:50.190Z,979.8
2018-04-24T02:36:51.897Z,979.8
2018-04-24T02:37:53.250Z,979.8
2018-04-24T02:38:54.626Z,979.8
2018-04-24T02:39:55.992Z,979.7
2018-04-24T02:40:57.372Z,979.7
2018-04-24T02:41:58.727Z,979.7
2018-04-24T02:43:00.065Z,979.7
2018-04-24T02:44:01.410Z,979.6
2018-04-24T02:45:02.776Z,979.6
2018-04-24T02:46:04.104Z,979.7
2018-04-24T02:47:05.508Z,979.6
2018-04-24T02:48:06.845Z,979.6
2018-04-24T02:49:08.173Z,979.6
2018-04-24T02:50:14.143Z,979.7
2018-04-24T02:51:15.499Z,979.7
2018-04-24T02:52:16.889Z,979.7
2018-04-24T02:53:18.212Z,979.7
2018-04-24T02:54:19.535Z,979.8
2018-04-24T02:55:20.845Z,979.8
2018-04-24T02:56:22.343Z,979.8
2018-04-24T02:57:23.870Z,979.8
2018-04-24T02:58:25.253Z,979.6
2018-04-24T02:59:26.919Z,979.7
2018-04-24T03:00:28.355Z,979.7
2018-04-24T03:01:29.667Z,979.7
2018-04-24T03:02:31.152Z,979.7
2018-04-24T03:03:32.495Z,979.7
2018-04-24T03:04:33.899Z,979.7
2018-04-24T03:05:35.311Z,979.7
2018-04-24T03:06:36.627Z,979.7
2018-04-24T03:07:38.032Z,979.7
2018-04-24T03:08:39.369Z,979.6
2018-04-24T03:09:40.738Z,979.7
2018-04-24T03:10:42.084Z,979.7
2018-04-24T03:11:43.583Z,979.7
2018-04-24T03:12:44.963Z,979.7
2018-04-24T03:13:46.322Z,979.6
2018-04-24T03:14:47.648Z,979.5
2018-04-24T03:15:48.976Z,979.7
2018-04-24T03:16:50.337Z,979.4
2018-04-24T03:17:51.746Z,979.6
2018-04-24T03:18:53.134Z,979.6
2018-04-24T03:19:54.434Z,979.6
2018-04-24T03:20:55.782Z,979.6
2018-04-24T03:21:57.131Z,979.5
2018-04-24T03:22:58.528Z,979.6
2018-04-24T03:23:59.875Z,979.6
2018-04-24T03:25:01.248Z,979.5
2018-04-24T03:26:02.659Z,979.4
2018-04-24T03:27:03.995Z,979.4
2018-04-24T03:28:06.721Z,979.4
2018-04-24T03:29:08.047Z,979.3
2018-04-24T03:30:09.412Z,979.3
2018-04-24T03:31:10.744Z,979.3
2018-04-24T03:32:12.102Z,979.2
2018-04-24T03:33:13.557Z,979.2
2018-04-24T03:34:14.942Z,979.3
2018-04-24T03:35:16.207Z,979.3
2018-04-24T03:36:17.543Z,979.2
2018-04-24T03:37:18.885Z,979.2
2018-04-24T03:38:20.296Z,979.1
2018-04-24T03:39:21.610Z,979.1
2018-04-24T03:40:23.004Z,979.2
2018-04-24T03:41:24.314Z,979.2
2018-04-24T03:42:25.679Z,979.2
2018-04-24T03:43:27.086Z,979.2
2018-04-24T03:44:28.449Z,979.3
2018-04-24T03:45:29.782Z,979.2
2018-04-24T03:46:31.098Z,979.3
2018-04-24T03:47:32.428Z,979.2
2018-04-24T03:48:33.830Z,979.3
2018-04-24T03:49:35.157Z,979.1
2018-04-24T03:50:36.477Z,979.3
2018-04-24T03:51:37.793Z,979.3
2018-04-24T03:52:39.104Z,979.3
2018-04-24T03:53:40.514Z,979.4
2018-04-24T03:54:42.065Z,979.4
2018-04-24T03:55:43.423Z,979.3
2018-04-24T03:56:44.983Z,979.4
2018-04-24T03:57:46.301Z,979.3
2018-04-24T03:58:48.226Z,979.3
2018-04-24T03:59:49.538Z,979.3
2018-04-24T04:00:51.032Z,979.1
2018-04-24T04:01:52.339Z,979.3
2018-04-24T04:02:59.466Z,979.3
2018-04-24T04:04:00.915Z,979.2
2018-04-24T04:05:04.576Z,979.1
2018-04-24T04:06:05.999Z,978.9
2018-04-24T04:07:07.547Z,979.1
2018-04-24T04:08:08.905Z,979
2018-04-24T04:09:10.566Z,979
2018-04-24T04:10:11.883Z,979.2
2018-04-24T04:11:13.340Z,979.1
2018-04-24T04:12:14.907Z,979.1
2018-04-24T04:13:16.254Z,979.1
2018-04-24T04:14:17.644Z,979
2018-04-24T04:15:18.946Z,979
2018-04-24T04:16:20.269Z,979
2018-04-24T04:17:24.355Z,979
2018-04-24T04:18:25.706Z,979.1
2018-04-24T04:19:27.387Z,979
2018-04-24T04:20:28.768Z,979
2018-04-24T04:21:30.138Z,978.7
2018-04-24T04:22:31.485Z,978.9
2018-04-24T04:23:32.807Z,978.9
2018-04-24T04:24:34.335Z,978.9
2018-04-24T04:25:35.925Z,978.8
2018-04-24T04:26:37.292Z,978.7
2018-04-24T04:27:38.881Z,978.7
2018-04-24T04:28:40.192Z,978.7
2018-04-24T04:29:41.562Z,978.8
2018-04-24T04:30:42.937Z,978.8
2018-04-24T04:31:44.236Z,978.8
2018-04-24T04:32:45.575Z,978.8
2018-04-24T04:33:46.902Z,978.8
2018-04-24T04:34:48.264Z,978.8
2018-04-24T04:35:49.690Z,978.9
2018-04-24T04:36:51.030Z,978.9
2018-04-24T04:37:52.376Z,979
2018-04-24T04:38:53.696Z,979
2018-04-24T04:39:55.191Z,979
2018-04-24T04:40:56.534Z,979.1
2018-04-24T04:42:00.723Z,979
2018-04-24T04:43:02.067Z,978.9
2018-04-24T04:44:03.456Z,979
2018-04-24T04:45:04.835Z,979
2018-04-24T04:46:06.209Z,979
2018-04-24T04:47:07.538Z,979
2018-04-24T04:48:08.877Z,978.8
2018-04-24T04:49:10.280Z,979
2018-04-24T04:50:11.671Z,979.1
2018-04-24T04:51:13.085Z,979.1
2018-04-24T04:52:14.474Z,979.2
2018-04-24T04:53:15.860Z,979.1
2018-04-24T04:54:17.205Z,979.2
2018-04-24T04:55:18.606Z,979.1
2018-04-24T04:56:19.933Z,979.2
2018-04-24T04:57:23.839Z,979.2
2018-04-24T04:58:25.234Z,979.2
2018-04-24T04:59:26.609Z,979.3
2018-04-24T05:00:28.018Z,979.2
2018-04-24T05:01:29.374Z,979.3
2018-04-24T05:02:30.862Z,979.2
2018-04-24T05:03:32.267Z,979.3
2018-04-24T05:04:33.658Z,979.3
2018-04-24T05:05:35.069Z,979.3
2018-04-24T05:06:36.462Z,979.3
2018-04-24T05:07:41.682Z,979.3
2018-04-24T05:08:43.051Z,979.3
2018-04-24T05:09:44.418Z,979.1
2018-04-24T05:10:46.097Z,979.2
2018-04-24T05:11:47.927Z,979.2
2018-04-24T05:12:49.284Z,979.4
2018-04-24T05:13:50.909Z,979.2
2018-04-24T05:14:52.323Z,979.4
2018-04-24T05:15:55.113Z,979.4
2018-04-24T05:16:56.472Z,979.3
2018-04-24T05:17:58.188Z,979.5
2018-04-24T05:18:59.536Z,979.5
2018-04-24T05:20:01.422Z,979.5
2018-04-24T05:21:05.313Z,979.5
2018-04-24T05:22:07.057Z,979.5
2018-04-24T05:23:08.453Z,979.6
2018-04-24T05:24:10.048Z,979.5
2018-04-24T05:25:11.411Z,979.6
2018-04-24T05:26:12.870Z,979.5
2018-04-24T05:27:14.386Z,979.6
2018-04-24T05:28:15.861Z,979.5
2018-04-24T05:29:17.303Z,979.4
2018-04-24T05:30:18.649Z,979.4
2018-04-24T05:31:20.039Z,979.5
2018-04-24T05:32:21.435Z,979.5
2018-04-24T05:33:23.280Z,979.5
2018-04-24T05:34:24.646Z,979.4
2018-04-24T05:35:26.050Z,979.6
2018-04-24T05:36:27.443Z,979.6
2018-04-24T05:37:28.833Z,979.7
2018-04-24T05:38:30.208Z,979.6
2018-04-24T05:39:31.681Z,979.5
2018-04-24T05:40:33.066Z,979.4
2018-04-24T05:41:34.495Z,979.5
2018-04-24T05:42:35.834Z,979.4
2018-04-24T05:43:37.244Z,979.5
2018-04-24T05:44:38.626Z,979.4
2018-04-24T05:45:39.995Z,979.5
2018-04-24T05:46:41.403Z,979.5
2018-04-24T05:47:42.860Z,979.5
2018-04-24T05:48:44.213Z,979.4
2018-04-24T05:49:45.602Z,979.4
2018-04-24T05:50:46.958Z,979.5
2018-04-24T05:51:48.367Z,979.5
2018-04-24T05:52:49.711Z,979.6
2018-04-24T05:53:58.465Z,979.6
2018-04-24T05:55:00.111Z,979.6
2018-04-24T05:56:01.551Z,979.6
2018-04-24T05:57:03.867Z,979.4
2018-04-24T05:58:05.254Z,979.6
2018-04-24T05:59:06.605Z,979.6
2018-04-24T06:00:07.998Z,979.5
2018-04-24T06:01:09.339Z,979.6
2018-04-24T06:02:10.834Z,979.4
2018-04-24T06:03:12.227Z,979.5
2018-04-24T06:04:13.615Z,979.5
2018-04-24T06:05:14.933Z,979.5
2018-04-24T06:06:16.274Z,979.3
2018-04-24T06:07:17.685Z,979.5
2018-04-24T06:08:19.104Z,979.6
2018-04-24T06:09:20.419Z,979.6
2018-04-24T06:10:22.215Z,979.6
2018-04-24T06:11:25.379Z,979.5
2018-04-24T06:12:26.780Z,979.6
2018-04-24T06:13:28.169Z,979.7
2018-04-24T06:14:29.509Z,979.7
2018-04-24T06:15:30.846Z,979.7
2018-04-24T06:16:32.250Z,979.6
2018-04-24T06:17:36.838Z,979.7
2018-04-24T06:18:38.197Z,979.8
2018-04-24T06:19:39.535Z,979.8
2018-04-24T06:20:40.956Z,979.8
2018-04-24T06:21:42.324Z,979.7
2018-04-24T06:22:43.708Z,979.8
2018-04-24T06:23:45.070Z,979.9
2018-04-24T06:24:46.424Z,979.8
2018-04-24T06:25:47.776Z,979.8
2018-04-24T06:26:49.424Z,979.8
2018-04-24T06:27:51.073Z,979.8
2018-04-24T06:28:55.976Z,979.8
2018-04-24T06:30:06.960Z,979.7
2018-04-24T06:31:08.323Z,979.8
2018-04-24T06:32:09.805Z,979.9
2018-04-24T06:33:11.276Z,979.6
2018-04-24T06:34:12.696Z,979.8
2018-04-24T06:35:14.326Z,979.8
2018-04-24T06:36:15.695Z,979.8
2018-04-24T06:37:20.074Z,979.9
2018-04-24T06:38:21.503Z,979.9
2018-04-24T06:39:22.888Z,979.9
2018-04-24T06:40:24.355Z,979.9
2018-04-24T06:41:33.131Z,979.9
2018-04-24T06:42:34.488Z,979.9
2018-04-24T06:43:36.098Z,980
2018-04-24T06:44:37.418Z,979.9
2018-04-24T06:45:42.325Z,979.9
2018-04-24T06:46:43.747Z,979.8
2018-04-24T06:47:45.400Z,979.9
2018-04-24T06:48:46.755Z,979.8
2018-04-24T06:49:48.145Z,979.9
2018-04-24T06:50:49.501Z,979.9
2018-04-24T06:51:50.929Z,979.9
2018-04-24T06:52:52.330Z,979.8
2018-04-24T06:53:53.871Z,979.8
2018-04-24T06:54:55.249Z,979.9
2018-04-24T06:55:59.813Z,979.9
2018-04-24T06:57:01.379Z,979.7
2018-04-24T06:58:19.403Z,979.8
2018-04-24T06:59:20.791Z,979.9
2018-04-24T07:00:22.136Z,979.9
2018-04-24T07:01:23.578Z,979.9
2018-04-24T07:02:25.003Z,979.9
2018-04-24T07:03:26.771Z,979.7
2018-04-24T07:04:28.204Z,979.9
2018-04-24T07:05:29.684Z,979.9
2018-04-24T07:06:33.964Z,979.9
2018-04-24T07:07:35.346Z,979.8
2018-04-24T07:08:36.701Z,979.9
2018-04-24T07:09:39.316Z,979.9
2018-04-24T07:10:40.688Z,979.8
2018-04-24T07:11:42.055Z,979.9
2018-04-24T07:12:43.476Z,979.7
2018-04-24T07:14:01.896Z,979.9
2018-04-24T07:15:04.484Z,980
2018-04-24T07:16:06.042Z,979.9
2018-04-24T07:17:07.861Z,980
2018-04-24T07:18:09.288Z,979.9
2018-04-24T07:19:10.685Z,979.9
2018-04-24T07:20:12.478Z,980
2018-04-24T07:21:13.939Z,979.9
2018-04-24T07:22:15.576Z,979.9
2018-04-24T07:23:16.847Z,980
2018-04-24T07:24:21.212Z,980
2018-04-24T07:25:22.681Z,979.8
2018-04-24T07:26:24.027Z,979.9
2018-04-24T07:27:25.406Z,979.8
2018-04-24T07:28:26.871Z,979.8
2018-04-24T07:29:31.569Z,979.8
2018-04-24T07:30:33.190Z,980
2018-04-24T07:31:34.588Z,979.9
2018-04-24T07:32:41.191Z,979.9
2018-04-24T07:33:42.631Z,980
2018-04-24T07:34:44.009Z,979.8
2018-04-24T07:35:45.414Z,979.9
2018-04-24T07:36:46.800Z,980.2
2018-04-24T07:37:48.185Z,980.2
2018-04-24T07:38:49.585Z,980.1
2018-04-24T07:39:50.986Z,980.1
2018-04-24T07:40:52.401Z,980.1
2018-04-24T07:41:56.316Z,980
2018-04-24T07:42:57.670Z,980
2018-04-24T07:43:59.064Z,980.1
2018-04-24T07:45:00.440Z,980.2
2018-04-24T07:46:02.086Z,980
2018-04-24T07:47:03.467Z,980.1
2018-04-24T07:48:08.067Z,980
2018-04-24T07:49:09.469Z,979.8
2018-04-24T07:50:11.328Z,979.9
2018-04-24T07:51:12.728Z,979.8
2018-04-24T07:52:14.202Z,979.9
2018-04-24T07:53:15.569Z,979.8
2018-04-24T07:54:18.005Z,979.4
2018-04-24T07:55:19.327Z,979.7
2018-04-24T07:56:20.927Z,979.8
2018-04-24T07:57:22.286Z,979.8
2018-04-24T07:58:23.853Z,979.8
2018-04-24T07:59:25.236Z,979.7
2018-04-24T08:00:29.804Z,979.7
2018-04-24T08:01:31.363Z,979.8
2018-04-24T08:02:35.244Z,979.7
2018-04-24T08:03:36.680Z,979.8
2018-04-24T08:04:46.526Z,979.7
2018-04-24T08:05:47.856Z,979.8
2018-04-24T08:06:49.894Z,979.8
2018-04-24T08:07:51.249Z,979.8
2018-04-24T08:08:55.147Z,979.9
2018-04-24T08:09:56.667Z,979.9
2018-04-24T08:11:00.190Z,979.8
2018-04-24T08:12:02.219Z,979.8
2018-04-24T08:13:04.535Z,979.7
2018-04-24T08:14:07.836Z,979.7
2018-04-24T08:15:09.512Z,979.9
2018-04-24T08:16:10.900Z,979.8
2018-04-24T08:17:13.934Z,979.7
2018-04-24T08:18:18.157Z,979.8
2018-04-24T08:19:20.952Z,979.8
2018-04-24T08:20:22.377Z,979.9
2018-04-24T08:21:28.314Z,979.9
2018-04-24T08:22:29.746Z,979.8
2018-04-24T08:23:31.116Z,979.9
2018-04-24T08:24:32.503Z,979.8
2018-04-24T08:25:34.940Z,979.8
2018-04-24T08:26:36.316Z,979.6
2018-04-24T08:27:44.213Z,979.9
2018-04-24T08:28:45.702Z,979.9
2018-04-24T08:29:47.272Z,979.7
2018-04-24T08:30:48.730Z,979.9
2018-04-24T08:31:50.093Z,979.9
2018-04-24T08:32:51.728Z,979.8
2018-04-24T08:33:53.222Z,979.9
2018-04-24T08:34:54.926Z,979.9
2018-04-24T08:35:56.599Z,979.9
2018-04-24T08:36:59.957Z,980
2018-04-24T08:38:09.769Z,979.8
2018-04-24T08:39:11.222Z,980
2018-04-24T08:40:12.850Z,980
2018-04-24T08:41:14.305Z,979.9
2018-04-24T08:42:15.724Z,979.9
2018-04-24T08:43:17.158Z,979.9
2018-04-24T08:44:19.605Z,979.7
2018-04-24T08:45:20.952Z,979.8
2018-04-24T08:46:24.292Z,979.7
2018-04-24T08:47:25.701Z,979.9
2018-04-24T08:48:28.264Z,979.7
2018-04-24T08:49:29.669Z,979.8
2018-04-24T08:50:34.675Z,979.9
2018-04-24T08:51:36.068Z,979.9
2018-04-24T08:52:40.156Z,979.9
2018-04-24T08:53:41.598Z,979.9
2018-04-24T08:54:46.412Z,979.7
2018-04-24T08:55:47.806Z,979.9
2018-04-24T08:56:51.100Z,979.5
2018-04-24T08:57:54.671Z,980
2018-04-24T08:58:56.095Z,979.9
2018-04-24T08:59:57.564Z,979.8
2018-04-24T09:00:59.373Z,979.9
2018-04-24T09:02:00.844Z,979.9
2018-04-24T09:03:04.441Z,980
2018-04-24T09:04:05.921Z,979.9
2018-04-24T09:05:11.199Z,979.9
2018-04-24T09:06:12.581Z,979.9
2018-04-24T09:07:14.264Z,979.8
2018-04-24T09:08:16.238Z,979.9
2018-04-24T09:09:19.150Z,979.9
2018-04-24T09:10:20.540Z,979.9
2018-04-24T09:11:22.774Z,979.9
2018-04-24T09:12:24.709Z,979.9
2018-04-24T09:13:29.357Z,979.9
2018-04-24T09:14:30.933Z,979.9
2018-04-24T09:15:33.609Z,979.9
2018-04-24T09:16:35.352Z,979.7
2018-04-24T09:17:40.318Z,979.9
2018-04-24T09:18:41.803Z,979.9
2018-04-24T09:19:44.093Z,979.8
2018-04-24T09:20:45.862Z,979.8
2018-04-24T09:21:47.325Z,979.8
2018-04-24T09:22:50.403Z,979.8
2018-04-24T09:23:54.712Z,979.7
2018-04-24T09:24:58.512Z,979.8
2018-04-24T09:26:00.038Z,979.7
2018-04-24T09:27:01.514Z,979.8
2018-04-24T09:28:05.090Z,979.6
2018-04-24T09:29:07.052Z,979.7
2018-04-24T09:30:11.989Z,979.6
2018-04-24T09:31:13.374Z,979.7
2018-04-24T09:32:21.908Z,979.6
2018-04-24T09:33:24.609Z,979.6
2018-04-24T09:34:26.167Z,979.6
2018-04-24T09:35:28.130Z,979.7
2018-04-24T09:36:29.545Z,979.7
2018-04-24T09:37:32.039Z,979.7
2018-04-24T09:38:33.695Z,979.5
2018-04-24T09:39:35.651Z,979.6
2018-04-24T09:40:39.047Z,979.6
2018-04-24T09:41:40.437Z,979.6
2018-04-24T09:42:42.038Z,979.7
2018-04-24T09:43:43.491Z,979.4
2018-04-24T09:44:45.542Z,979.6
2018-04-24T09:45:47.155Z,979.5
2018-04-24T09:46:48.653Z,979.7
2018-04-24T09:47:52.458Z,979.7
2018-04-24T09:49:04.106Z,979.7
2018-04-24T09:50:05.712Z,979.6
2018-04-24T09:51:07.120Z,979.8
2018-04-24T09:52:11.734Z,979.8
2018-04-24T09:53:29.178Z,979.7
2018-04-24T09:54:30.702Z,979.7
2018-04-24T09:55:35.186Z,979.7
2018-04-24T09:56:36.924Z,979.7
2018-04-24T09:57:40.595Z,979.8
2018-04-24T09:58:41.988Z,979.6
2018-04-24T09:59:43.560Z,979.8
2018-04-24T10:00:45.208Z,979.8
2018-04-24T10:01:46.791Z,979.7
2018-04-24T10:02:51.271Z,979.8
2018-04-24T10:03:52.702Z,979.7
2018-04-24T10:04:54.572Z,979.7
2018-04-24T10:05:56.217Z,979.6
2018-04-24T10:06:57.752Z,979.6
2018-04-24T10:07:59.318Z,979.7
2018-04-24T10:09:00.788Z,979.8
2018-04-24T10:10:05.095Z,979.7
2018-04-24T10:11:09.137Z,979.7
2018-04-24T10:12:10.675Z,979.7
2018-04-24T10:13:12.128Z,979.5
2018-04-24T10:14:13.463Z,979.7
2018-04-24T10:15:14.894Z,979.7
2018-04-24T10:16:16.347Z,979.7
2018-04-24T10:17:17.772Z,979.7
2018-04-24T10:18:19.261Z,979.6
2018-04-24T10:19:20.681Z,979.7
2018-04-24T10:20:22.061Z,979.8
2018-04-24T10:21:23.499Z,979.8
2018-04-24T10:22:28.214Z,979.6
2018-04-24T10:23:29.704Z,979.7
2018-04-24T10:24:31.269Z,979.7
2018-04-24T10:25:32.805Z,979.6
2018-04-24T10:26:34.235Z,979.8
2018-04-24T10:27:38.650Z,979.7
2018-04-24T10:28:42.863Z,979.7
2018-04-24T10:29:44.298Z,979.7
2018-04-24T10:30:45.699Z,979.7
2018-04-24T10:31:47.294Z,979.7
2018-04-24T10:32:48.897Z,979.7
2018-04-24T10:33:50.272Z,979.7
2018-04-24T10:34:51.743Z,979.6
2018-04-24T10:35:56.075Z,979.7
2018-04-24T10:36:57.656Z,979.7
2018-04-24T10:37:59.246Z,979.7
2018-04-24T10:39:00.939Z,979.6
2018-04-24T10:40:02.468Z,979.6
2018-04-24T10:41:04.234Z,979.4
2018-04-24T10:42:05.717Z,979.6
2018-04-24T10:43:07.260Z,979.5
2018-04-24T10:44:08.662Z,979.5
2018-04-24T10:45:19.488Z,979.2
2018-04-24T10:46:24.518Z,979.4
2018-04-24T10:47:29.287Z,979.3
2018-04-24T10:48:30.714Z,979.5
2018-04-24T10:49:32.090Z,979.5
2018-04-24T10:50:33.584Z,979.5
2018-04-24T10:51:34.971Z,979.5
2018-04-24T10:52:36.295Z,979.4
2018-04-24T10:53:37.728Z,979.3
2018-04-24T10:54:41.908Z,979.5
2018-04-24T10:55:43.325Z,979.2
2018-04-24T10:56:46.938Z,979.3
2018-04-24T10:57:48.381Z,979.5
2018-04-24T10:58:49.827Z,979.5
2018-04-24T10:59:51.191Z,979.5
2018-04-24T11:00:52.656Z,979.5
2018-04-24T11:01:54.125Z,979.5
2018-04-24T11:02:55.787Z,979.4
2018-04-24T11:03:57.211Z,979.5
2018-04-24T11:04:58.560Z,979.4
2018-04-24T11:06:00.296Z,979.5
2018-04-24T11:07:01.896Z,979.5
2018-04-24T11:08:06.339Z,979.6
2018-04-24T11:09:07.782Z,979.5
2018-04-24T11:10:09.751Z,979.5
2018-04-24T11:11:11.107Z,979.6
2018-04-24T11:12:15.897Z,979.5
2018-04-24T11:13:20.279Z,979.6
2018-04-24T11:14:21.745Z,979.5
2018-04-24T11:15:24.632Z,979.6
2018-04-24T11:16:26.188Z,979.5
2018-04-24T11:17:32.824Z,979.6
2018-04-24T11:18:43.823Z,979.6
2018-04-24T11:19:48.702Z,979.4
2018-04-24T11:20:50.166Z,979.5
2018-04-24T11:21:52.736Z,979.6
2018-04-24T11:22:57.671Z,979.5
2018-04-24T11:23:59.764Z,979.3
2018-04-24T11:25:02.512Z,979.5
2018-04-24T11:26:04.261Z,979.4
2018-04-24T11:27:15.367Z,979.5
2018-04-24T11:28:20.817Z,979.3
2018-04-24T11:29:23.941Z,979.4
2018-04-24T11:30:25.655Z,979.4
2018-04-24T11:31:35.245Z,979.5
2018-04-24T11:32:36.955Z,979.3
2018-04-24T11:33:38.770Z,979.4
2018-04-24T11:34:41.485Z,979.5
2018-04-24T11:35:42.894Z,979.5
2018-04-24T11:36:48.797Z,979.5
2018-04-24T11:37:51.629Z,979.5
2018-04-24T11:38:53.385Z,979.5
2018-04-24T11:39:55.102Z,979.6
2018-04-24T11:40:58.180Z,979.6
2018-04-24T11:42:02.923Z,979.6
2018-04-24T11:43:04.760Z,979.6
2018-04-24T11:44:06.850Z,979.6
2018-04-24T11:45:08.584Z,979.5
2018-04-24T11:46:10.256Z,979.4
2018-04-24T11:47:11.909Z,979.5
2018-04-24T11:48:13.495Z,979.4
2018-04-24T11:49:15.131Z,979.5
2018-04-24T11:50:17.090Z,979.5
2018-04-24T11:51:18.827Z,979.5
2018-04-24T11:52:20.326Z,979.5
2018-04-24T11:53:21.886Z,979.5
2018-04-24T11:54:23.744Z,979.5
2018-04-24T11:55:25.920Z,979.5
2018-04-24T11:56:27.858Z,979.4
2018-04-24T11:57:32.647Z,979.3
2018-04-24T11:58:34.924Z,979.5
2018-04-24T11:59:36.677Z,979.4
2018-04-24T12:00:38.451Z,979.4
2018-04-24T12:01:40.144Z,979.4
2018-04-24T12:02:41.830Z,979.4
2018-04-24T12:03:46.102Z,979.4
2018-04-24T12:04:47.720Z,979.4
2018-04-24T12:05:51.661Z,979.5
2018-04-24T12:06:54.108Z,979.5
2018-04-24T12:07:55.702Z,979.5
2018-04-24T12:08:57.209Z,979.4
2018-04-24T12:09:58.587Z,979.5
2018-04-24T12:11:08.550Z,979.5
2018-04-24T12:12:09.998Z,979.5
2018-04-24T12:13:14.127Z,979.4
2018-04-24T12:14:15.783Z,979.4
2018-04-24T12:15:17.195Z,979.4
2018-04-24T12:16:18.680Z,979.4
2018-04-24T12:17:20.075Z,979.5
2018-04-24T12:18:21.505Z,979.4
2018-04-24T12:19:22.850Z,979.5
2018-04-24T12:20:24.195Z,979.5
2018-04-24T12:21:25.754Z,979.4
2018-04-24T12:22:27.189Z,979.4
2018-04-24T12:23:28.659Z,979.4
2018-04-24T12:24:30.156Z,979.4
2018-04-24T12:25:31.483Z,979.4
2018-04-24T12:26:32.823Z,979.4
2018-04-24T12:27:34.451Z,979.4
2018-04-24T12:28:38.386Z,979.3
2018-04-24T12:29:42.961Z,979.4
2018-04-24T12:30:44.432Z,979.3
2018-04-24T12:31:45.925Z,979.4
2018-04-24T12:32:47.361Z,979.3
2018-04-24T12:33:48.778Z,979.3
2018-04-24T12:34:50.179Z,979.3
2018-04-24T12:35:51.624Z,979.3
2018-04-24T12:36:53.083Z,979.3
2018-04-24T12:37:54.857Z,979.3
2018-04-24T12:38:56.472Z,979.3
2018-04-24T12:39:57.780Z,979.3
2018-04-24T12:40:59.201Z,979.3
2018-04-24T12:42:01.216Z,978.9
2018-04-24T12:43:06.658Z,979.2
2018-04-24T12:44:08.325Z,979.3
2018-04-24T12:45:09.802Z,979.2
2018-04-24T12:46:11.193Z,979
2018-04-24T12:47:12.615Z,979.2
2018-04-24T12:48:14.094Z,979.3
2018-04-24T12:49:15.553Z,979.3
2018-04-24T12:50:16.983Z,979.3
2018-04-24T12:51:25.057Z,979.3
2018-04-24T12:52:26.471Z,979.3
2018-04-24T12:53:30.170Z,979.2
2018-04-24T12:54:34.248Z,979.2
2018-04-24T12:55:35.662Z,979.2
2018-04-24T12:56:38.881Z,979.2
2018-04-24T12:57:43.492Z,979.1
2018-04-24T12:58:44.895Z,979.2
2018-04-24T12:59:48.370Z,979
2018-04-24T13:00:49.837Z,979.2
2018-04-24T13:01:51.270Z,979.1
2018-04-24T13:02:52.631Z,979.2
2018-04-24T13:03:54.099Z,979
2018-04-24T13:05:05.369Z,979
2018-04-24T13:06:06.768Z,979.1
2018-04-24T13:07:08.193Z,979.1
2018-04-24T13:08:09.565Z,978.8
2018-04-24T13:09:10.977Z,979
2018-04-24T13:10:12.423Z,979
2018-04-24T13:11:13.854Z,979
2018-04-24T13:12:18.184Z,979.1
2018-04-24T13:13:35.721Z,979.1
2018-04-24T13:14:37.163Z,979.2
2018-04-24T13:15:39.893Z,979.1
2018-04-24T13:16:41.282Z,979.1
2018-04-24T13:17:45.369Z,979
2018-04-24T13:18:46.932Z,979.1
2018-04-24T13:19:48.356Z,979.1
2018-04-24T13:20:49.733Z,979
2018-04-24T13:21:51.171Z,978.9
2018-04-24T13:22:55.146Z,979
2018-04-24T13:23:56.767Z,979
2018-04-24T13:24:58.220Z,979.1
2018-04-24T13:25:59.684Z,979